Terminal Aerodrome Forecast
Issued by NWS Charleston, WV

Current Version | Previous Version | Graphics & Text | Print | Product List | Glossary On
Versions: 1 2 3 4 5 6 7 8 9 10 11 12 13 14 15 16 17 18 19 20 21 22 23 24 25 26
000
FTUS41 KRLX 051139
TAFBKW
TAF
KBKW 051139Z 0512/0612 00000KT 5SM BR BKN100
     FM051400 00000KT P6SM BKN035
     FM051500 00000KT P6SM SHRA OVC025
     FM051700 12004KT 3SM SHRA VCTS OVC035CB
     FM052300 09003KT 4SM SHRA BR OVC030
     FM060500 00000KT 6SM SHRA BR OVC025
     FM061100 00000KT 3SM SHRA BR OVC010=

USA.gov is the U.S. government's official web portal to all federal, state and local government web resources and services.